Time;durP1;ratioP1;P1;durP2;ratioP2;P2;SDS_P1;SDS_P2;PMS_P1;PMS_P2;Temp;Humidity;BMP_temperature;BMP_pressure;BME280_temperature;BME280_humidity;BME280_pressure;Samples;Min_cycle;Max_cycle;Signal;HPM_P1;HPM_P2
2022/10/02 00:00:22;;;;;;;2.03;0.93;;;11.40;99.90;;;;;;5047015;28;21229;-66
2022/10/02 00:02:55;;;;;;;2.73;1.30;;;11.40;99.90;;;;;;5012650;28;20448;-66
2022/10/02 00:05:29;;;;;;;1.40;0.77;;;11.40;99.90;;;;;;5045268;28;20404;-66
2022/10/02 00:08:02;;;;;;;6.40;1.90;;;11.40;99.90;;;;;;5047224;28;20424;-66
2022/10/02 00:10:48;;;;;;;2.03;0.87;;;11.40;99.90;;;;;;5051061;28;20618;-66
2022/10/02 00:13:21;;;;;;;1.87;0.70;;;11.40;99.90;;;;;;5045284;28;20417;-66
2022/10/02 00:15:47;;;;;;;8.20;1.23;;;11.40;99.90;;;;;;5044244;28;20526;-66
2022/10/02 00:18:17;;;;;;;1.87;0.93;;;11.30;99.90;;;;;;5051338;28;20458;-66
2022/10/02 00:20:56;;;;;;;4.30;1.57;;;11.40;99.90;;;;;;5051239;28;20444;-66
2022/10/02 00:23:26;;;;;;;8.70;1.40;;;11.40;99.90;;;;;;5049242;28;20447;-66
2022/10/02 00:26:22;;;;;;;6.50;1.27;;;11.40;99.90;;;;;;5051171;28;20466;-66
2022/10/02 00:29:01;;;;;;;2.47;1.17;;;11.40;99.90;;;;;;5037312;28;20430;-66
2022/10/02 00:31:29;;;;;;;1.40;0.90;;;11.40;99.90;;;;;;5050096;28;20420;-66
2022/10/02 00:34:20;;;;;;;3.30;1.30;;;11.40;99.90;;;;;;5050509;28;20447;-66
2022/10/02 00:37:04;;;;;;;5.10;1.10;;;11.50;99.90;;;;;;5023347;28;20490;-66
2022/10/02 00:39:34;;;;;;;2.43;1.00;;;11.50;99.90;;;;;;5031798;28;20458;-66
2022/10/02 00:42:05;;;;;;;4.03;1.00;;;11.50;99.90;;;;;;5040066;28;20447;-66
2022/10/02 00:44:42;;;;;;;1.63;0.70;;;11.50;99.90;;;;;;5044055;28;20424;-66
2022/10/02 00:47:20;;;;;;;2.57;1.23;;;11.50;99.90;;;;;;5049633;28;20535;-66
2022/10/02 00:49:48;;;;;;;7.20;0.80;;;11.50;99.90;;;;;;5051022;28;20922;-66
2022/10/02 00:52:32;;;;;;;9.30;2.30;;;11.50;99.90;;;;;;5040782;28;20428;-66
2022/10/02 00:55:34;;;;;;;1.83;0.93;;;11.50;99.90;;;;;;5038796;28;20548;-66
2022/10/02 00:58:24;;;;;;;2.60;1.00;;;11.50;99.90;;;;;;5014257;28;20526;-66
2022/10/02 01:01:04;;;;;;;3.40;1.00;;;11.50;99.90;;;;;;5053543;28;20419;-66
2022/10/02 01:03:41;;;;;;;10.57;1.53;;;11.50;99.90;;;;;;5040144;28;20898;-66
2022/10/02 01:06:08;;;;;;;2.23;0.90;;;11.60;99.90;;;;;;5036425;28;20437;-66
2022/10/02 01:08:35;;;;;;;2.17;0.97;;;11.60;99.90;;;;;;5037633;28;20458;-66
2022/10/02 01:11:02;;;;;;;1.80;1.00;;;11.60;99.90;;;;;;5043660;28;20917;-66
2022/10/02 01:13:29;;;;;;;2.00;1.20;;;11.60;99.90;;;;;;5044980;28;20779;-66
2022/10/02 01:15:59;;;;;;;1.97;1.10;;;11.70;99.90;;;;;;5054234;28;20467;-66
2022/10/02 01:18:25;;;;;;;3.80;1.30;;;11.60;99.90;;;;;;5054100;28;20413;-66
2022/10/02 01:20:56;;;;;;;8.30;1.63;;;11.60;99.90;;;;;;5054408;28;20447;-65
2022/10/02 01:23:36;;;;;;;5.30;1.37;;;11.60;99.90;;;;;;5051361;28;20423;-65
2022/10/02 01:26:02;;;;;;;7.03;1.80;;;11.70;99.90;;;;;;5034119;28;20791;-65
2022/10/02 01:28:28;;;;;;;2.80;1.50;;;11.70;99.90;;;;;;5045643;28;20446;-66
2022/10/02 01:31:00;;;;;;;2.20;0.93;;;11.70;99.90;;;;;;5039462;28;20178;-65
2022/10/02 01:33:25;;;;;;;3.10;1.33;;;11.70;99.90;;;;;;5051730;28;20463;-65
2022/10/02 01:35:51;;;;;;;2.07;1.00;;;11.60;99.90;;;;;;5051362;28;20707;-65
2022/10/02 01:38:20;;;;;;;2.80;0.90;;;11.70;99.90;;;;;;5044897;28;20924;-65
2022/10/02 01:40:45;;;;;;;3.00;0.70;;;11.70;99.90;;;;;;5053781;28;20527;-65
2022/10/02 01:43:28;;;;;;;2.60;1.27;;;11.70;99.90;;;;;;5048626;28;20512;-65
2022/10/02 01:46:00;;;;;;;3.73;1.00;;;11.70;99.90;;;;;;5033757;28;20265;-65
2022/10/02 01:48:54;;;;;;;5.37;1.43;;;11.70;99.90;;;;;;5038271;28;20928;-65
2022/10/02 01:51:38;;;;;;;1.77;0.80;;;11.70;99.90;;;;;;5044566;28;20424;-65
2022/10/02 01:54:32;;;;;;;4.53;1.30;;;11.70;99.90;;;;;;5053451;28;20482;-65
2022/10/02 01:57:16;;;;;;;2.50;1.13;;;11.70;99.90;;;;;;5053801;28;20789;-66
2022/10/02 01:59:45;;;;;;;2.70;1.30;;;11.70;99.90;;;;;;5042211;28;20455;-66
2022/10/02 02:02:23;;;;;;;3.30;1.00;;;11.70;99.90;;;;;;5046138;28;20420;-66
2022/10/02 02:05:01;;;;;;;4.30;1.00;;;11.70;99.90;;;;;;5053770;28;20423;-66
2022/10/02 02:07:35;;;;;;;5.90;1.47;;;11.70;99.90;;;;;;5052489;28;20465;-66
2022/10/02 02:10:12;;;;;;;6.27;1.40;;;11.70;99.90;;;;;;5053487;28;20447;-66
2022/10/02 02:12:44;;;;;;;9.73;1.40;;;11.70;99.90;;;;;;5053079;28;20497;-66
2022/10/02 02:15:25;;;;;;;6.17;1.77;;;11.70;99.90;;;;;;5048798;28;20506;-66
2022/10/02 02:18:00;;;;;;;4.13;1.50;;;11.70;99.90;;;;;;5053526;28;20507;-66
2022/10/02 02:20:33;;;;;;;7.20;1.37;;;11.70;99.90;;;;;;5053111;28;20420;-67
2022/10/02 02:23:07;;;;;;;2.30;0.77;;;11.70;99.90;;;;;;5052035;28;20413;-67
2022/10/02 02:25:37;;;;;;;1.77;0.90;;;11.70;99.90;;;;;;5052937;28;20420;-67
2022/10/02 02:28:08;;;;;;;16.73;1.40;;;11.70;99.90;;;;;;5038748;28;20507;-67
2022/10/02 02:30:36;;;;;;;1.80;0.97;;;11.60;99.90;;;;;;5042166;28;20431;-66
2022/10/02 02:33:24;;;;;;;9.50;1.23;;;11.60;99.90;;;;;;5052768;28;20416;-67
2022/10/02 02:35:55;;;;;;;4.60;1.63;;;11.60;99.90;;;;;;5052804;28;20526;-66
2022/10/02 02:38:37;;;;;;;10.63;1.37;;;11.60;99.90;;;;;;5052956;28;20413;-66
2022/10/02 02:41:24;;;;;;;2.10;0.97;;;11.60;99.90;;;;;;5052660;28;20963;-66
2022/10/02 02:43:58;;;;;;;1.87;1.03;;;11.60;99.90;;;;;;5041092;28;20508;-66
2022/10/02 02:47:02;;;;;;;3.73;1.47;;;11.60;99.90;;;;;;5042606;28;20448;-66
2022/10/02 02:49:25;;;;;;;2.33;0.90;;;11.60;99.90;;;;;;5048165;28;20424;-66
2022/10/02 02:51:52;;;;;;;5.20;1.73;;;11.60;99.90;;;;;;5039212;28;20425;-66
2022/10/02 02:54:24;;;;;;;11.97;2.00;;;11.60;99.90;;;;;;5045003;28;20490;-67
2022/10/02 02:56:52;;;;;;;3.73;1.50;;;11.60;99.90;;;;;;5035047;28;20476;-66
2022/10/02 02:59:19;;;;;;;2.27;0.90;;;11.70;99.90;;;;;;5052083;28;20427;-66
2022/10/02 03:01:45;;;;;;;9.73;1.53;;;11.70;99.90;;;;;;5048182;28;20891;-66
2022/10/02 03:04:12;;;;;;;11.77;1.97;;;11.70;99.90;;;;;;5046712;28;20478;-66
2022/10/02 03:06:44;;;;;;;2.50;0.90;;;11.70;99.90;;;;;;5052267;28;20216;-66
2022/10/02 03:09:15;;;;;;;9.70;1.77;;;11.70;99.90;;;;;;5051971;28;20423;-66
2022/10/02 03:12:17;;;;;;;5.30;1.70;;;11.70;99.90;;;;;;5052059;28;20905;-66
2022/10/02 03:15:12;;;;;;;2.43;1.17;;;11.60;99.90;;;;;;5042046;28;20952;-66
2022/10/02 03:17:46;;;;;;;6.10;1.50;;;11.60;99.90;;;;;;5020598;28;20429;-66
2022/10/02 03:20:31;;;;;;;2.30;0.97;;;11.60;99.90;;;;;;5044709;28;20473;-66
2022/10/02 03:23:28;;;;;;;2.23;1.17;;;11.60;99.90;;;;;;5027522;28;20801;-66
2022/10/02 03:26:03;;;;;;;3.50;1.00;;;11.70;99.90;;;;;;5052158;28;20451;-66
2022/10/02 03:28:34;;;;;;;6.93;1.33;;;11.60;99.90;;;;;;5042408;28;20555;-66
2022/10/02 03:31:00;;;;;;;3.47;1.30;;;11.70;99.90;;;;;;5051956;28;20457;-66
2022/10/02 03:33:27;;;;;;;2.17;1.00;;;11.80;99.90;;;;;;5049239;28;20417;-66
2022/10/02 03:35:54;;;;;;;2.13;0.77;;;11.80;99.90;;;;;;5051686;28;20338;-66
2022/10/02 03:38:22;;;;;;;4.10;1.43;;;11.80;99.90;;;;;;5051858;28;20500;-66
2022/10/02 03:40:51;;;;;;;6.40;1.77;;;11.80;99.90;;;;;;5051613;28;20439;-66
2022/10/02 03:43:20;;;;;;;4.70;1.10;;;11.80;99.90;;;;;;5047186;28;20421;-65
2022/10/02 03:45:46;;;;;;;7.17;1.43;;;11.80;99.90;;;;;;5046292;28;20456;-66
2022/10/02 03:48:12;;;;;;;3.63;1.00;;;11.80;99.90;;;;;;5041895;28;20917;-66
2022/10/02 03:50:37;;;;;;;2.63;1.13;;;11.80;99.90;;;;;;5046163;28;20186;-66
2022/10/02 03:53:12;;;;;;;8.63;1.07;;;11.80;99.90;;;;;;5049754;28;20543;-65
2022/10/02 03:55:42;;;;;;;2.60;0.97;;;11.80;99.90;;;;;;5051561;28;20205;-66
2022/10/02 03:58:16;;;;;;;2.33;0.73;;;11.80;99.90;;;;;;5051867;28;20419;-66
2022/10/02 04:01:10;;;;;;;3.33;1.20;;;11.80;99.90;;;;;;5051130;28;20491;-65
2022/10/02 04:03:40;;;;;;;9.63;1.37;;;11.70;99.90;;;;;;4994503;28;20432;-65
2022/10/02 04:06:13;;;;;;;2.83;1.03;;;11.80;99.90;;;;;;5049090;28;20421;-65
2022/10/02 04:09:06;;;;;;;4.93;0.90;;;11.70;99.90;;;;;;5042006;28;20793;-65
2022/10/02 04:12:13;;;;;;;4.40;1.47;;;11.70;99.90;;;;;;5051146;28;20447;-65
2022/10/02 04:14:50;;;;;;;5.90;1.40;;;11.70;99.90;;;;;;5040114;28;20451;-65
2022/10/02 04:17:23;;;;;;;5.00;1.93;;;11.70;99.90;;;;;;5051165;28;20466;-65
2022/10/02 04:20:00;;;;;;;3.03;1.40;;;11.70;99.90;;;;;;5051381;28;20416;-65
2022/10/02 04:22:44;;;;;;;3.07;1.60;;;11.60;99.90;;;;;;5045047;28;20508;-65
2022/10/02 04:25:17;;;;;;;2.70;1.10;;;11.60;99.90;;;;;;5033344;28;20433;-65
2022/10/02 04:28:03;;;;;;;3.10;1.43;;;11.60;99.90;;;;;;5032097;28;20857;-65
2022/10/02 04:30:29;;;;;;;3.93;1.47;;;11.60;99.90;;;;;;5037576;28;20428;-65
2022/10/02 04:32:57;;;;;;;5.40;2.10;;;11.60;99.90;;;;;;5044477;28;20458;-65
2022/10/02 04:35:38;;;;;;;4.60;1.10;;;11.60;99.90;;;;;;5055258;28;20217;-65
2022/10/02 04:38:22;;;;;;;2.67;1.20;;;11.60;99.90;;;;;;5055093;28;20420;-65
2022/10/02 04:40:59;;;;;;;2.13;0.97;;;11.60;99.90;;;;;;5030518;28;20442;-65
2022/10/02 04:43:56;;;;;;;2.60;0.93;;;11.60;99.90;;;;;;5045980;28;20466;-65
2022/10/02 04:46:46;;;;;;;4.00;2.17;;;11.60;99.90;;;;;;4993791;28;20583;-65
2022/10/02 04:49:20;;;;;;;2.13;1.20;;;11.60;99.90;;;;;;5033908;28;20436;-65
2022/10/02 04:52:16;;;;;;;1.70;1.00;;;11.60;99.90;;;;;;5054479;28;20454;-65
2022/10/02 04:54:54;;;;;;;6.20;1.87;;;11.60;99.90;;;;;;5054723;28;20463;-65
2022/10/02 04:57:44;;;;;;;3.87;1.57;;;11.60;99.90;;;;;;5036494;28;20808;-65
2022/10/02 05:00:11;;;;;;;2.67;1.00;;;11.60;99.90;;;;;;5053930;28;20440;-65
2022/10/02 05:02:49;;;;;;;2.40;0.93;;;11.50;99.90;;;;;;5054228;28;20484;-65
2022/10/02 05:06:02;;;;;;;3.57;1.00;;;11.50;99.90;;;;;;5029745;28;20770;-65
2022/10/02 05:08:53;;;;;;;3.53;1.90;;;11.50;99.90;;;;;;5032807;28;20459;-65
2022/10/02 05:11:38;;;;;;;2.43;1.20;;;11.50;99.90;;;;;;5053817;28;20463;-65
2022/10/02 05:14:24;;;;;;;2.70;1.30;;;11.50;99.90;;;;;;5042101;28;20417;-65
2022/10/02 05:16:52;;;;;;;2.63;1.10;;;11.60;99.90;;;;;;5032713;28;20439;-65
2022/10/02 05:19:46;;;;;;;4.93;1.60;;;11.60;99.90;;;;;;5032812;28;20420;-65
2022/10/02 05:22:27;;;;;;;7.17;2.27;;;11.60;99.90;;;;;;5053330;28;20956;-65
2022/10/02 05:25:21;;;;;;;6.10;1.63;;;11.60;99.90;;;;;;5031801;28;20467;-65
2022/10/02 05:28:26;;;;;;;5.33;1.20;;;11.60;99.90;;;;;;5044536;28;20412;-65
2022/10/02 05:31:09;;;;;;;1.87;0.93;;;11.60;99.90;;;;;;5028123;28;20544;-65
2022/10/02 05:33:57;;;;;;;2.03;1.27;;;11.60;99.90;;;;;;5048579;28;20423;-65
2022/10/02 05:36:33;;;;;;;5.50;1.57;;;11.60;99.90;;;;;;5053914;28;20478;-65
2022/10/02 05:39:11;;;;;;;6.13;1.50;;;11.70;99.90;;;;;;5046274;28;20450;-65
2022/10/02 05:42:00;;;;;;;2.97;1.00;;;11.60;99.90;;;;;;5041566;28;20435;-65
2022/10/02 05:45:10;;;;;;;2.17;1.20;;;11.70;99.90;;;;;;5000394;28;20428;-65
2022/10/02 05:47:43;;;;;;;4.90;1.33;;;11.70;99.90;;;;;;4989247;28;20524;-65
2022/10/02 05:50:32;;;;;;;3.90;1.30;;;11.60;99.90;;;;;;5051454;28;20419;-66
2022/10/02 05:53:28;;;;;;;3.53;1.60;;;11.60;99.90;;;;;;5049724;28;20978;-63
2022/10/02 05:56:21;;;;;;;3.50;1.77;;;11.60;99.90;;;;;;5053704;28;20464;-63
2022/10/02 05:59:13;;;;;;;8.63;2.90;;;11.60;99.90;;;;;;5052575;28;20420;-64
2022/10/02 06:01:46;;;;;;;6.17;1.70;;;11.60;99.90;;;;;;5053134;28;20432;-64
2022/10/02 06:04:32;;;;;;;3.03;1.50;;;11.60;99.90;;;;;;5053740;28;20559;-64
2022/10/02 06:07:09;;;;;;;6.23;1.93;;;11.60;99.90;;;;;;5031829;28;20495;-64
2022/10/02 06:09:46;;;;;;;14.60;1.50;;;11.50;99.90;;;;;;5053606;28;20446;-64
2022/10/02 06:12:25;;;;;;;3.37;1.70;;;11.50;99.90;;;;;;5052846;28;20423;-64
2022/10/02 06:15:04;;;;;;;5.40;1.33;;;11.50;99.90;;;;;;5041603;28;20459;-64
2022/10/02 06:17:40;;;;;;;2.93;1.70;;;11.50;99.90;;;;;;5052834;28;20748;-64
2022/10/02 06:20:38;;;;;;;4.80;1.03;;;11.50;99.90;;;;;;5034337;28;20454;-64
2022/10/02 06:23:19;;;;;;;2.73;1.40;;;11.50;99.90;;;;;;5028514;28;20474;-64
2022/10/02 06:25:56;;;;;;;3.10;1.30;;;11.50;99.90;;;;;;5042242;28;20769;-64
2022/10/02 06:28:39;;;;;;;5.70;2.00;;;11.50;99.90;;;;;;5052349;28;20905;-64
2022/10/02 06:31:42;;;;;;;2.27;1.53;;;11.50;99.90;;;;;;5032318;28;20422;-64
2022/10/02 06:34:11;;;;;;;5.47;1.83;;;11.60;99.90;;;;;;5016528;28;20433;-64
2022/10/02 06:37:32;;;;;;;3.70;1.70;;;11.50;99.90;;;;;;5042276;28;20775;-64
2022/10/02 06:40:00;;;;;;;1.80;1.10;;;11.60;99.90;;;;;;4946035;29;20469;-64
2022/10/02 06:42:35;;;;;;;4.23;1.27;;;11.60;99.90;;;;;;5034591;28;20969;-64
2022/10/02 06:45:13;;;;;;;7.40;1.90;;;11.70;99.90;;;;;;5045765;28;20424;-64
2022/10/02 06:48:00;;;;;;;2.20;1.60;;;11.70;99.90;;;;;;5044386;28;20765;-64
2022/10/02 06:50:49;;;;;;;4.30;2.33;;;11.80;99.90;;;;;;5051868;28;20412;-64
2022/10/02 06:53:40;;;;;;;3.97;2.37;;;11.80;99.90;;;;;;5029312;28;20445;-64
2022/10/02 06:56:18;;;;;;;2.90;1.77;;;11.80;99.90;;;;;;5037471;28;20553;-64
2022/10/02 06:59:03;;;;;;;3.33;1.50;;;11.90;99.90;;;;;;5023585;28;20423;-65
2022/10/02 07:01:50;;;;;;;7.13;1.83;;;11.90;99.90;;;;;;5027653;28;20420;-65
2022/10/02 07:04:31;;;;;;;2.00;1.30;;;12.00;99.90;;;;;;5041797;28;20479;-65
2022/10/02 07:07:08;;;;;;;3.53;1.90;;;12.00;99.90;;;;;;5034139;28;20414;-65
2022/10/02 07:09:47;;;;;;;2.77;1.57;;;12.10;99.90;;;;;;5046105;28;20481;-64
2022/10/02 07:12:46;;;;;;;5.27;1.47;;;12.10;99.90;;;;;;5027358;28;20910;-65
2022/10/02 07:15:34;;;;;;;5.60;2.00;;;12.10;99.90;;;;;;5038479;28;20987;-64
2022/10/02 07:18:03;;;;;;;3.57;1.40;;;12.20;99.90;;;;;;5052220;28;20490;-65
2022/10/02 07:20:44;;;;;;;3.20;1.40;;;12.20;99.90;;;;;;5052452;28;20412;-64
2022/10/02 07:23:28;;;;;;;11.20;2.50;;;12.30;99.90;;;;;;5051075;28;20404;-64
2022/10/02 07:26:30;;;;;;;8.93;1.77;;;12.20;99.90;;;;;;5035287;28;20459;-64
2022/10/02 07:29:07;;;;;;;3.50;1.17;;;12.30;99.90;;;;;;4957641;28;20493;-64
2022/10/02 07:31:59;;;;;;;8.30;1.90;;;12.40;99.90;;;;;;5048237;28;20433;-64
2022/10/02 07:34:42;;;;;;;7.87;2.33;;;12.40;99.90;;;;;;5051793;28;20456;-64
2022/10/02 07:37:26;;;;;;;4.90;1.47;;;12.40;99.90;;;;;;5052337;28;20482;-65
2022/10/02 07:39:55;;;;;;;2.20;0.77;;;12.40;99.90;;;;;;5051549;28;20423;-64
2022/10/02 07:42:35;;;;;;;2.63;1.43;;;12.40;99.90;;;;;;5051710;28;20413;-64
2022/10/02 07:45:22;;;;;;;6.97;1.57;;;12.40;99.90;;;;;;5038493;28;20443;-65
2022/10/02 07:48:22;;;;;;;1.97;1.10;;;12.50;99.90;;;;;;5051598;28;20408;-65
2022/10/02 07:54:15;;;;;;;6.30;1.80;;;12.60;99.90;;;;;;5051599;28;20470;-65
2022/10/02 07:56:44;;;;;;;4.20;1.67;;;12.60;99.90;;;;;;5051858;28;20523;-65
2022/10/02 07:59:14;;;;;;;4.03;1.37;;;12.70;99.90;;;;;;5050968;28;20420;-65
2022/10/02 08:01:42;;;;;;;6.23;1.40;;;12.70;99.90;;;;;;5051082;28;20452;-65
2022/10/02 08:04:17;;;;;;;2.80;1.20;;;12.70;99.90;;;;;;5038344;28;21124;-65
2022/10/02 08:06:45;;;;;;;2.53;1.33;;;12.80;99.90;;;;;;5045420;28;20416;-65
2022/10/02 08:09:17;;;;;;;2.27;1.27;;;12.80;99.90;;;;;;5044180;28;20432;-65
2022/10/02 08:11:43;;;;;;;2.60;1.00;;;13.00;99.90;;;;;;5051728;28;20945;-66
2022/10/02 08:14:17;;;;;;;3.23;1.30;;;13.30;99.90;;;;;;5047319;28;21004;-65
2022/10/02 08:16:56;;;;;;;1.50;0.90;;;13.90;99.90;;;;;;5041396;28;20482;-65
2022/10/02 08:19:38;;;;;;;2.13;0.90;;;14.40;99.90;;;;;;5028356;28;20453;-65
2022/10/02 08:22:25;;;;;;;6.03;1.43;;;14.50;99.90;;;;;;5046183;28;20419;-66
2022/10/02 08:25:03;;;;;;;5.27;1.23;;;14.60;99.90;;;;;;5047381;28;20965;-65
2022/10/02 08:27:51;;;;;;;1.80;0.83;;;14.60;99.90;;;;;;5031694;28;20412;-65
2022/10/02 08:30:17;;;;;;;4.10;1.10;;;14.60;99.90;;;;;;5036823;28;21090;-66
2022/10/02 08:32:43;;;;;;;4.60;0.90;;;14.50;99.90;;;;;;5054749;28;20424;-66
2022/10/02 08:35:18;;;;;;;3.00;1.13;;;14.50;99.90;;;;;;5055183;28;20460;-66
2022/10/02 08:37:53;;;;;;;3.27;1.20;;;14.90;99.90;;;;;;5055237;28;20427;-66
2022/10/02 08:40:33;;;;;;;3.70;0.90;;;15.60;99.90;;;;;;5029167;28;20428;-66
2022/10/02 08:43:07;;;;;;;3.60;0.80;;;16.30;99.90;;;;;;5053572;28;20420;-66
2022/10/02 08:46:01;;;;;;;2.90;1.00;;;16.80;99.90;;;;;;5054574;28;20419;-66
2022/10/02 08:48:53;;;;;;;2.90;0.87;;;17.20;99.90;;;;;;5054639;28;20426;-66
2022/10/02 08:51:56;;;;;;;7.37;1.20;;;17.10;99.90;;;;;;5054972;28;20478;-66
2022/10/02 08:54:30;;;;;;;2.13;0.97;;;17.30;99.90;;;;;;5054931;28;20511;-66
2022/10/02 08:57:14;;;;;;;1.70;1.00;;;17.50;99.90;;;;;;5055045;28;20419;-66
2022/10/02 09:00:05;;;;;;;2.70;0.90;;;17.30;99.90;;;;;;5054413;28;20462;-66
2022/10/02 09:02:50;;;;;;;7.73;1.00;;;17.10;99.90;;;;;;5054022;28;20512;-65
2022/10/02 09:05:30;;;;;;;2.60;1.27;;;16.90;99.90;;;;;;5036715;28;20424;-65
2022/10/02 09:08:21;;;;;;;1.80;0.90;;;16.90;99.90;;;;;;5047186;28;20424;-65
2022/10/02 09:11:26;;;;;;;5.23;1.40;;;17.00;99.90;;;;;;5052700;28;20832;-65
2022/10/02 09:14:16;;;;;;;1.40;0.63;;;17.20;99.90;;;;;;5054253;28;20447;-65
2022/10/02 09:17:13;;;;;;;2.67;0.80;;;17.30;99.90;;;;;;5053768;28;20512;-65
2022/10/02 09:20:01;;;;;;;3.03;1.10;;;17.40;99.90;;;;;;5035402;28;20408;-65
2022/10/02 09:23:04;;;;;;;2.23;0.73;;;17.30;99.90;;;;;;5029600;28;20948;-65
2022/10/02 09:25:42;;;;;;;2.67;1.03;;;17.30;99.90;;;;;;5054240;28;20416;-65
2022/10/02 09:28:39;;;;;;;4.17;0.90;;;17.30;99.90;;;;;;5054375;28;20861;-65
2022/10/02 09:31:39;;;;;;;2.67;0.77;;;17.40;99.90;;;;;;5019997;28;20432;-65
2022/10/02 09:34:23;;;;;;;1.40;0.60;;;17.40;99.90;;;;;;5054171;28;20409;-65
2022/10/02 09:37:07;;;;;;;2.23;0.90;;;17.30;99.90;;;;;;5054395;28;20424;-65
2022/10/02 09:39:38;;;;;;;1.60;0.50;;;17.40;99.90;;;;;;5053986;28;20416;-65
2022/10/02 09:42:07;;;;;;;1.27;0.50;;;17.50;99.90;;;;;;5053599;28;20436;-65
2022/10/02 09:44:57;;;;;;;1.20;0.40;;;17.60;99.90;;;;;;5053487;28;20408;-63
2022/10/02 09:47:35;;;;;;;1.30;0.50;;;17.60;99.90;;;;;;5053859;28;20421;-65
2022/10/02 09:50:18;;;;;;;1.73;0.70;;;17.60;99.90;;;;;;5028905;28;20423;-65
2022/10/02 09:52:52;;;;;;;2.03;0.70;;;17.70;99.90;;;;;;5046851;28;20470;-66
2022/10/02 09:55:55;;;;;;;2.00;0.83;;;17.60;99.90;;;;;;5050503;28;20832;-66
2022/10/02 09:58:27;;;;;;;1.40;0.53;;;17.50;99.90;;;;;;5031976;28;20420;-65
2022/10/02 10:01:34;;;;;;;3.60;1.30;;;17.50;99.90;;;;;;5050625;28;20427;-65
2022/10/02 10:04:17;;;;;;;2.03;0.80;;;17.40;99.90;;;;;;5041317;28;20413;-66
2022/10/02 10:07:01;;;;;;;1.63;0.53;;;17.30;99.90;;;;;;5035340;28;20860;-65
2022/10/02 10:09:48;;;;;;;1.30;0.50;;;17.40;99.90;;;;;;5037724;28;20491;-66
2022/10/02 10:12:19;;;;;;;1.40;0.50;;;17.50;99.90;;;;;;5024690;28;20427;-66
2022/10/02 10:15:18;;;;;;;1.30;0.50;;;17.60;99.90;;;;;;5047497;28;20498;-66
2022/10/02 10:18:03;;;;;;;1.30;0.50;;;17.80;99.90;;;;;;5026441;28;20409;-66
2022/10/02 10:20:50;;;;;;;1.30;0.50;;;17.90;99.90;;;;;;5052452;28;20408;-66
2022/10/02 10:23:25;;;;;;;1.30;0.50;;;17.90;99.90;;;;;;5052071;28;20415;-66
2022/10/02 10:26:02;;;;;;;2.10;0.83;;;17.90;99.90;;;;;;5033501;28;20440;-66
2022/10/02 10:28:47;;;;;;;1.60;0.73;;;18.00;99.90;;;;;;5041564;28;20804;-66
2022/10/02 10:31:21;;;;;;;1.30;0.50;;;18.10;99.90;;;;;;5053024;28;20478;-66
2022/10/02 10:34:03;;;;;;;1.30;0.50;;;18.10;99.90;;;;;;5037979;28;20506;-64
2022/10/02 10:39:40;;;;;;;1.23;0.40;;;18.00;99.90;;;;;;5029801;28;20516;-64
2022/10/02 10:42:33;;;;;;;1.57;0.50;;;17.80;99.90;;;;;;5045600;28;20429;-64
2022/10/02 10:45:26;;;;;;;1.40;0.50;;;17.70;99.90;;;;;;5035370;28;20960;-64
2022/10/02 10:48:33;;;;;;;1.20;0.40;;;17.70;99.90;;;;;;5033638;28;20510;-64
2022/10/02 10:51:27;;;;;;;1.60;0.60;;;17.70;99.90;;;;;;5005943;28;20429;-64
2022/10/02 10:54:20;;;;;;;1.47;0.50;;;17.70;99.90;;;;;;5002491;28;20475;-65
2022/10/02 10:57:11;;;;;;;1.50;0.60;;;17.80;99.90;;;;;;5045311;28;20432;-65
2022/10/02 11:00:15;;;;;;;1.30;0.50;;;17.80;99.90;;;;;;5035429;28;20424;-65
2022/10/02 11:03:06;;;;;;;1.40;0.50;;;17.90;99.90;;;;;;4940620;29;20527;-64
2022/10/02 11:05:56;;;;;;;1.30;0.40;;;17.90;99.90;;;;;;4935389;29;20433;-65
2022/10/02 11:08:42;;;;;;;1.30;0.40;;;18.00;99.90;;;;;;5011762;28;20433;-65
2022/10/02 11:11:31;;;;;;;1.43;0.60;;;18.30;99.90;;;;;;5025897;28;20441;-65
2022/10/02 11:14:27;;;;;;;1.30;0.50;;;18.50;99.90;;;;;;5031963;28;20433;-65
2022/10/02 11:17:05;;;;;;;1.40;0.50;;;18.50;99.90;;;;;;5027187;28;21711;-64
2022/10/02 11:20:09;;;;;;;1.30;0.50;;;18.50;99.90;;;;;;5019802;28;20433;-66
2022/10/02 11:22:36;;;;;;;1.27;0.40;;;18.50;99.90;;;;;;5020252;28;20420;-65
2022/10/02 11:25:27;;;;;;;1.70;0.53;;;18.50;99.90;;;;;;5035091;28;20417;-65
2022/10/02 11:28:45;;;;;;;1.40;0.50;;;18.40;99.90;;;;;;5043823;28;20556;-66
2022/10/02 11:31:35;;;;;;;1.20;0.40;;;18.20;99.90;;;;;;4990191;28;20468;-65
2022/10/02 11:34:36;;;;;;;1.20;0.40;;;18.10;99.90;;;;;;5031118;28;20456;-65
2022/10/02 11:37:16;;;;;;;1.20;0.40;;;17.90;99.90;;;;;;5038013;28;20443;-65
2022/10/02 11:40:07;;;;;;;1.23;0.40;;;17.70;99.90;;;;;;5032256;28;20405;-66
2022/10/02 11:42:49;;;;;;;1.40;0.60;;;17.60;99.90;;;;;;5037655;28;20431;-66
2022/10/02 11:45:30;;;;;;;1.30;0.50;;;17.50;99.90;;;;;;5051322;28;20415;-65
2022/10/02 11:48:23;;;;;;;1.63;0.80;;;17.10;99.90;;;;;;5033478;28;20475;-65
2022/10/02 11:51:23;;;;;;;1.80;0.60;;;16.80;99.90;;;;;;5022042;28;20532;-65
2022/10/02 11:53:48;;;;;;;1.40;0.60;;;16.50;99.90;;;;;;5023395;28;20803;-65
2022/10/02 11:57:00;;;;;;;2.10;1.23;;;16.30;99.90;;;;;;5012682;28;21049;-65
2022/10/02 11:59:39;;;;;;;2.23;1.33;;;16.00;99.90;;;;;;4989426;28;20668;-65
2022/10/02 12:02:14;;;;;;;1.30;0.60;;;15.80;99.90;;;;;;5038909;28;20420;-65
2022/10/02 12:04:44;;;;;;;1.50;0.70;;;15.70;99.90;;;;;;5026989;28;20788;-65
2022/10/02 12:07:32;;;;;;;1.87;0.60;;;15.70;99.90;;;;;;5030484;28;20433;-65
2022/10/02 12:10:36;;;;;;;1.70;0.80;;;15.60;99.90;;;;;;5037654;28;20466;-65
2022/10/02 12:13:26;;;;;;;1.67;0.90;;;15.50;99.90;;;;;;5033620;28;20428;-64
2022/10/02 12:16:04;;;;;;;1.30;0.50;;;15.20;99.90;;;;;;5035342;28;20986;-65
2022/10/02 12:18:43;;;;;;;1.23;0.50;;;15.10;99.90;;;;;;5033973;28;20421;-64
2022/10/02 12:28:20;;;;;;;1.20;0.50;;;15.00;99.90;;;;;;5034067;28;20582;-64
2022/10/02 12:31:11;;;;;;;1.40;0.60;;;14.90;99.90;;;;;;5042707;28;20943;-64
2022/10/02 12:34:12;;;;;;;1.20;0.50;;;14.80;99.90;;;;;;5035933;28;20452;-65
2022/10/02 12:36:58;;;;;;;1.30;0.63;;;14.80;99.90;;;;;;4990891;28;20476;-65
2022/10/02 12:39:23;;;;;;;1.93;0.70;;;14.80;99.90;;;;;;5009283;28;20437;-65
2022/10/02 12:41:58;;;;;;;1.20;0.40;;;14.70;99.90;;;;;;5034009;28;20940;-65
2022/10/02 12:45:01;;;;;;;1.30;0.60;;;14.70;99.90;;;;;;5038481;28;20556;-65
2022/10/02 12:47:40;;;;;;;1.30;0.60;;;14.70;99.90;;;;;;5040187;28;20438;-65
2022/10/02 12:50:24;;;;;;;1.40;0.60;;;14.70;99.90;;;;;;5034344;28;20449;-65
2022/10/02 12:52:56;;;;;;;1.30;0.60;;;14.80;99.90;;;;;;5033572;28;20443;-65
2022/10/02 12:55:30;;;;;;;1.73;0.60;;;14.70;99.90;;;;;;5034305;28;20463;-65
2022/10/02 12:58:02;;;;;;;1.20;0.50;;;14.50;99.90;;;;;;5039108;28;20683;-64
2022/10/02 13:00:49;;;;;;;1.30;0.50;;;14.40;99.90;;;;;;5036138;28;20953;-64
2022/10/02 13:03:33;;;;;;;1.50;0.70;;;14.30;99.90;;;;;;5036959;28;20512;-65
2022/10/02 13:06:09;;;;;;;1.20;0.50;;;14.10;99.90;;;;;;5053827;28;20422;-65
2022/10/02 13:09:01;;;;;;;1.50;0.80;;;13.90;99.90;;;;;;5039839;28;20452;-64
2022/10/02 13:11:49;;;;;;;1.20;0.50;;;13.60;99.90;;;;;;5032552;28;20448;-65
2022/10/02 13:14:26;;;;;;;1.73;0.67;;;13.40;99.90;;;;;;5033028;28;20429;-66
2022/10/02 13:16:57;;;;;;;1.37;0.70;;;13.10;99.90;;;;;;5028162;28;20463;-65
2022/10/02 13:19:34;;;;;;;2.43;0.70;;;13.10;99.90;;;;;;5037932;28;20418;-65
2022/10/02 13:22:57;;;;;;;1.87;0.70;;;13.00;99.90;;;;;;5037999;28;20412;-65
2022/10/02 13:25:23;;;;;;;1.90;0.50;;;13.00;99.90;;;;;;4952926;29;21086;-66
2022/10/02 13:28:12;;;;;;;1.20;0.50;;;13.10;99.90;;;;;;4953261;29;20432;-66
2022/10/02 13:31:05;;;;;;;1.20;0.50;;;13.10;99.90;;;;;;5006391;28;20245;-66
2022/10/02 13:33:54;;;;;;;2.17;1.00;;;13.10;99.90;;;;;;5025824;28;20436;-66
2022/10/02 13:36:42;;;;;;;1.47;0.60;;;13.20;99.90;;;;;;5038530;28;20477;-67
2022/10/02 13:39:45;;;;;;;2.17;0.50;;;13.30;99.90;;;;;;5031932;28;20437;-66
2022/10/02 13:42:29;;;;;;;1.30;0.50;;;13.30;99.90;;;;;;5036699;28;20431;-66
2022/10/02 13:45:14;;;;;;;1.30;0.60;;;13.20;99.90;;;;;;5031494;28;20471;-66
2022/10/02 13:48:07;;;;;;;1.20;0.50;;;13.40;99.90;;;;;;5050863;28;20447;-66
2022/10/02 13:50:51;;;;;;;1.40;0.50;;;13.40;99.90;;;;;;5033178;28;20468;-66
2022/10/02 13:53:40;;;;;;;1.30;0.50;;;13.40;99.90;;;;;;5030051;28;20483;-67
2022/10/02 13:56:21;;;;;;;1.20;0.40;;;13.30;99.90;;;;;;5037337;28;20463;-67
2022/10/02 13:58:58;;;;;;;1.43;0.47;;;13.40;99.90;;;;;;5034686;28;20423;-66
2022/10/02 14:01:39;;;;;;;1.20;0.43;;;13.30;99.90;;;;;;5035856;28;20520;-66
2022/10/02 14:04:26;;;;;;;1.20;0.40;;;13.30;99.90;;;;;;5032956;28;20435;-66
2022/10/02 14:07:27;;;;;;;1.20;0.50;;;13.10;99.90;;;;;;5033270;28;20416;-66
2022/10/02 14:10:01;;;;;;;1.20;0.40;;;13.10;99.90;;;;;;4953941;28;20534;-66
2022/10/02 14:12:40;;;;;;;1.20;0.50;;;13.00;99.90;;;;;;5021740;28;20471;-66